الصفحة الرئيسية
METAR-TAF:

METAR-TAF

مطار :

تشونغتشينغ, جمهورية الصين الشعبية

مطار تشونغتشينغ جيانغبى الدولي

دائرة عرض: 29-31N, خط طول: 106-29E, ارتفاع: 351 متر

مراقبة الطقس الحالي

تاريخ ووقت الإصدار 13 دقيقة قبل الساعة 16:00UTC
رياح هادئة
درجة الحرارة 21°درجة مئوية
الرطوبة 88%
ضغط 1008 hPa
الرؤية: 8000 متر

METAR: ZUCK 221600Z 00000MPS 8000 NSC 21/19 Q1008 NOSIG

زمن: 00:13 (16:13 UTC)

توقعات

تاريخ ووقت الإصدار 7ساعات و 8 دقيقة قبل الساعة 09:05UTC
التوقعات صالحة من22 الساعة 12 UTC إلى 23 الساعة 12 UTC
ريح 6 عقدة من الغرب/الشمال الغربي
الرؤية: 3500 متر
غيوم متفرقة على ارتفاع 5000 قدم
غشاء
مؤقت
من 22 الساعة 18 UTC إلى 22 الساعة 24 UTC
زخات من الأمطار الخفيفة

TAF: ZUCK 220905Z 2212/2312 30003MPS 3500 BR SCT050 TX23/2308Z TN19/2222Z TEMPO 2218/2224 -SHRA

أرصاد الطقس والتوقعات من أكثر من 4000 مطار (تقارير الطقس للمطار METAR والتنبؤ بالطقس بالمطارTAF).

المحطات المتاحة هي النقط الصفراء والحمراء على الخريطة.

حرك المؤشر فوق النقطة لمعرفة اسم المحطة.

ثم انقر لمعرفة أرصاد وتوقعات الطقس.

لتغيير الخارطة: اضغط على الأزرار الخضراء مع رمز الصليب الأسود للتكبير. على الزر الأخضر مع شرطة للتصغير، أو على الأسهم الخضراء للخرائط المجاورة.


METAR-TAF: